Time;durP1;ratioP1;P1;durP2;ratioP2;P2;SDS_P1;SDS_P2;PMS_P1;PMS_P2;Temp;Humidity;BMP_temperature;BMP_pressure;BME280_temperature;BME280_humidity;BME280_pressure;Samples;Min_cycle;Max_cycle;Signal;HPM_P1;HPM_P2
2023/06/23 00:00:46;;;;;;;5.35;4.13;;;;;;;;;;2058605;28;20030;-81
2023/06/23 00:02:05;;;;;;;4.43;3.38;;;;;;;;;;2060289;28;20035;-80
2023/06/23 00:03:24;;;;;;;3.63;3.33;;;;;;;;;;2060843;28;20015;-82
2023/06/23 00:04:44;;;;;;;7.72;3.67;;;;;;;;;;2064030;28;20022;-82
2023/06/23 00:06:03;;;;;;;8.98;3.33;;;;;;;;;;2064723;28;20038;-82
2023/06/23 00:07:24;;;;;;;7.60;4.07;;;;;;;;;;2063539;28;20030;-81
2023/06/23 00:08:47;;;;;;;5.45;3.47;;;;;;;;;;2062161;28;20027;-82
2023/06/23 00:10:06;;;;;;;3.88;3.50;;;;;;;;;;2071381;28;20030;-83
2023/06/23 00:11:25;;;;;;;5.47;3.78;;;;;;;;;;2067375;28;20038;-83
2023/06/23 00:12:45;;;;;;;11.85;4.05;;;;;;;;;;2062575;28;20027;-83
2023/06/23 00:14:04;;;;;;;6.40;3.83;;;;;;;;;;2071327;28;20475;-82
2023/06/23 00:15:23;;;;;;;4.00;3.70;;;;;;;;;;2061171;28;20116;-82
2023/06/23 00:16:42;;;;;;;10.02;3.85;;;;;;;;;;2059694;28;20038;-80
2023/06/23 00:18:01;;;;;;;4.55;3.50;;;;;;;;;;2072648;28;20042;-81
2023/06/23 00:19:20;;;;;;;4.00;3.38;;;;;;;;;;2064748;28;20038;-81
2023/06/23 00:20:39;;;;;;;4.25;3.85;;;;;;;;;;2060592;28;20023;-82
2023/06/23 00:21:58;;;;;;;3.95;3.50;;;;;;;;;;2068595;28;20025;-83
2023/06/23 00:23:17;;;;;;;7.63;4.03;;;;;;;;;;2067823;28;20030;-82
2023/06/23 00:24:36;;;;;;;5.68;4.07;;;;;;;;;;2074587;28;20100;-82
2023/06/23 00:25:55;;;;;;;4.03;3.63;;;;;;;;;;2067639;28;20030;-82
2023/06/23 00:27:14;;;;;;;3.13;2.92;;;;;;;;;;2064868;28;20508;-83
2023/06/23 00:28:34;;;;;;;6.68;3.60;;;;;;;;;;2070945;28;20034;-83
2023/06/23 00:29:54;;;;;;;3.95;3.55;;;;;;;;;;2064519;28;20027;-83
2023/06/23 00:31:13;;;;;;;5.07;3.83;;;;;;;;;;2063769;28;20039;-83
2023/06/23 00:32:32;;;;;;;4.30;3.92;;;;;;;;;;2064273;28;20027;-82
2023/06/23 00:33:51;;;;;;;3.67;3.38;;;;;;;;;;2063643;28;20022;-81
2023/06/23 00:35:13;;;;;;;6.22;4.00;;;;;;;;;;2066046;28;20039;-84
2023/06/23 00:36:32;;;;;;;4.20;3.72;;;;;;;;;;2056683;28;20088;-82
2023/06/23 00:37:53;;;;;;;7.18;3.80;;;;;;;;;;2057618;28;20031;-83
2023/06/23 00:39:13;;;;;;;3.65;3.35;;;;;;;;;;2062784;28;20049;-82
2023/06/23 00:40:34;;;;;;;4.35;3.95;;;;;;;;;;2070246;28;20411;-81
2023/06/23 00:41:53;;;;;;;4.05;3.25;;;;;;;;;;2062828;28;20081;-83
2023/06/23 00:43:12;;;;;;;8.23;4.45;;;;;;;;;;2065337;28;20030;-84
2023/06/23 00:44:33;;;;;;;5.50;3.50;;;;;;;;;;2065134;28;20019;-82
2023/06/23 00:45:53;;;;;;;3.97;3.67;;;;;;;;;;2072767;28;20030;-83
2023/06/23 00:47:14;;;;;;;5.45;4.13;;;;;;;;;;2074518;28;20112;-81
2023/06/23 00:48:33;;;;;;;4.97;3.70;;;;;;;;;;2077206;28;20033;-82
2023/06/23 00:49:52;;;;;;;4.45;4.03;;;;;;;;;;2073009;28;20034;-83
2023/06/23 00:51:11;;;;;;;4.38;3.97;;;;;;;;;;2069494;28;20034;-82
2023/06/23 00:52:32;;;;;;;4.15;3.63;;;;;;;;;;2062935;28;20538;-82
2023/06/23 00:53:51;;;;;;;4.47;4.07;;;;;;;;;;2062287;28;20411;-82
2023/06/23 00:55:12;;;;;;;4.32;3.92;;;;;;;;;;2072149;28;20077;-82
2023/06/23 00:56:31;;;;;;;4.07;3.67;;;;;;;;;;2066955;28;20034;-82
2023/06/23 00:57:51;;;;;;;4.03;3.72;;;;;;;;;;2070949;28;20026;-83
2023/06/23 00:59:11;;;;;;;5.80;4.22;;;;;;;;;;2075293;28;20096;-83
2023/06/23 01:00:30;;;;;;;4.22;3.83;;;;;;;;;;2064630;28;20026;-82
2023/06/23 01:01:49;;;;;;;4.05;3.72;;;;;;;;;;2063777;28;20019;-83
2023/06/23 01:03:07;;;;;;;4.05;3.50;;;;;;;;;;2070414;28;20026;-85
2023/06/23 01:04:27;;;;;;;4.20;3.90;;;;;;;;;;2069013;28;20030;-83
2023/06/23 01:05:46;;;;;;;3.60;3.30;;;;;;;;;;2063888;28;20023;-83
2023/06/23 01:07:26;;;;;;;4.10;3.70;;;;;;;;;;2063523;28;20031;-83
2023/06/23 01:08:50;;;;;;;5.20;3.92;;;;;;;;;;2066692;28;20061;-84
2023/06/23 01:10:15;;;;;;;4.90;3.83;;;;;;;;;;2065211;28;20507;-83
2023/06/23 01:11:48;;;;;;;5.55;3.70;;;;;;;;;;2073720;28;20522;-82
2023/06/23 01:13:16;;;;;;;7.63;3.85;;;;;;;;;;2072531;28;20038;-82
2023/06/23 01:14:42;;;;;;;5.22;3.88;;;;;;;;;;2076054;28;20037;-83
2023/06/23 01:16:04;;;;;;;6.72;3.70;;;;;;;;;;2071982;28;20021;-81
2023/06/23 01:17:31;;;;;;;7.50;3.90;;;;;;;;;;2069168;28;20049;-85
2023/06/23 01:19:09;;;;;;;4.65;3.85;;;;;;;;;;2065465;28;20038;-83
2023/06/23 01:20:30;;;;;;;4.65;3.55;;;;;;;;;;2067717;28;20042;-84
2023/06/23 01:22:13;;;;;;;4.13;3.72;;;;;;;;;;2073094;28;20477;-83
2023/06/23 01:23:35;;;;;;;4.82;3.90;;;;;;;;;;2068091;28;20077;-83
2023/06/23 01:25:13;;;;;;;8.00;3.75;;;;;;;;;;2070539;28;20503;-84
2023/06/23 01:26:51;;;;;;;3.95;3.55;;;;;;;;;;2066162;28;20034;-83
2023/06/23 01:28:19;;;;;;;8.05;4.32;;;;;;;;;;2072951;28;20034;-83
2023/06/23 01:29:40;;;;;;;4.40;4.00;;;;;;;;;;2075007;28;20672;-85
2023/06/23 01:31:01;;;;;;;7.53;4.22;;;;;;;;;;2073046;28;20026;-82
2023/06/23 01:32:22;;;;;;;4.05;3.75;;;;;;;;;;2073874;28;20029;-84
2023/06/23 01:33:44;;;;;;;4.97;3.90;;;;;;;;;;2069157;28;20037;-81
2023/06/23 01:35:07;;;;;;;8.15;4.00;;;;;;;;;;2075680;28;20414;-83
2023/06/23 01:36:49;;;;;;;4.55;3.97;;;;;;;;;;2068056;28;20519;-82
2023/06/23 01:38:22;;;;;;;4.13;3.65;;;;;;;;;;2074145;28;20033;-84
2023/06/23 01:39:46;;;;;;;4.18;3.75;;;;;;;;;;2067765;28;20423;-83
2023/06/23 01:41:07;;;;;;;4.53;4.13;;;;;;;;;;2072837;28;20038;-83
2023/06/23 01:42:29;;;;;;;3.65;3.35;;;;;;;;;;2066953;28;20034;-85
2023/06/23 01:43:53;;;;;;;4.63;4.10;;;;;;;;;;2071627;28;20437;-82
2023/06/23 01:45:13;;;;;;;5.35;4.32;;;;;;;;;;2065065;28;20050;-83
2023/06/23 01:46:35;;;;;;;4.60;4.15;;;;;;;;;;2063891;28;20054;-83
2023/06/23 01:47:57;;;;;;;4.20;3.80;;;;;;;;;;2066590;28;20023;-83
2023/06/23 01:49:18;;;;;;;4.90;3.78;;;;;;;;;;2065664;28;20034;-83
2023/06/23 01:50:39;;;;;;;5.43;3.70;;;;;;;;;;2063236;28;20031;-83
2023/06/23 01:52:00;;;;;;;4.40;4.00;;;;;;;;;;2061360;28;20050;-85
2023/06/23 01:53:21;;;;;;;4.45;3.53;;;;;;;;;;2059834;28;20050;-84
2023/06/23 01:54:41;;;;;;;5.30;3.83;;;;;;;;;;2060473;28;20026;-84
2023/06/23 01:56:02;;;;;;;4.53;3.97;;;;;;;;;;2063874;28;20113;-86
2023/06/23 01:57:21;;;;;;;4.10;3.80;;;;;;;;;;2065148;28;20397;-85
2023/06/23 01:58:41;;;;;;;6.10;4.00;;;;;;;;;;2071288;28;20029;-84
2023/06/23 02:00:00;;;;;;;4.03;3.75;;;;;;;;;;2075331;28;20021;-84
2023/06/23 02:01:21;;;;;;;4.57;4.28;;;;;;;;;;2068528;28;20034;-84
2023/06/23 02:02:40;;;;;;;5.40;3.92;;;;;;;;;;2065169;28;20466;-86
2023/06/23 02:04:02;;;;;;;5.35;3.97;;;;;;;;;;2065772;28;20018;-85
2023/06/23 02:05:22;;;;;;;5.35;4.13;;;;;;;;;;2065836;28;20030;-86
2023/06/23 02:06:44;;;;;;;6.88;4.28;;;;;;;;;;2067953;28;20014;-85
2023/06/23 02:08:04;;;;;;;5.40;4.18;;;;;;;;;;2067298;28;20403;-87
2023/06/23 02:09:25;;;;;;;5.43;3.83;;;;;;;;;;2067872;28;20087;-86
2023/06/23 02:10:44;;;;;;;4.57;4.10;;;;;;;;;;2064427;28;20034;-84
2023/06/23 02:12:06;;;;;;;5.13;4.28;;;;;;;;;;2064467;28;20027;-85
2023/06/23 02:13:26;;;;;;;5.30;4.63;;;;;;;;;;2063724;28;20030;-85
2023/06/23 02:14:46;;;;;;;6.35;4.38;;;;;;;;;;2065904;28;20058;-84
2023/06/23 02:16:07;;;;;;;4.55;4.15;;;;;;;;;;2064513;28;20054;-82
2023/06/23 02:17:27;;;;;;;4.00;3.70;;;;;;;;;;2072057;28;20155;-83
2023/06/23 02:18:53;;;;;;;4.80;4.25;;;;;;;;;;2067301;28;20026;-84
2023/06/23 02:20:16;;;;;;;5.00;4.53;;;;;;;;;;2063486;28;20042;-83
2023/06/23 02:21:37;;;;;;;5.15;4.55;;;;;;;;;;2065098;28;20035;-84
2023/06/23 02:22:56;;;;;;;5.53;4.20;;;;;;;;;;2062693;28;20029;-82
2023/06/23 02:24:15;;;;;;;7.63;4.53;;;;;;;;;;2067818;28;20476;-84
2023/06/23 02:25:35;;;;;;;5.28;4.30;;;;;;;;;;2071720;28;20041;-83
2023/06/23 02:26:55;;;;;;;4.68;3.92;;;;;;;;;;2065005;28;20562;-83
2023/06/23 02:28:14;;;;;;;4.80;4.30;;;;;;;;;;2063313;28;20098;-83
2023/06/23 02:29:44;;;;;;;4.70;4.30;;;;;;;;;;2066975;28;20030;-84
2023/06/23 02:31:04;;;;;;;6.95;4.50;;;;;;;;;;2072762;28;20061;-83
2023/06/23 02:32:25;;;;;;;4.55;3.97;;;;;;;;;;2064953;28;20034;-83
2023/06/23 02:33:44;;;;;;;5.65;4.10;;;;;;;;;;2062359;28;20034;-83
2023/06/23 02:35:03;;;;;;;4.68;4.03;;;;;;;;;;2074212;28;20034;-84
2023/06/23 02:36:24;;;;;;;7.05;4.32;;;;;;;;;;2066517;28;20472;-84
2023/06/23 02:37:48;;;;;;;5.18;3.83;;;;;;;;;;2063642;28;20491;-84
2023/06/23 02:39:10;;;;;;;4.88;4.47;;;;;;;;;;2063232;28;20057;-81
2023/06/23 02:40:30;;;;;;;4.70;3.90;;;;;;;;;;2073257;28;20034;-81
2023/06/23 02:41:53;;;;;;;4.47;4.07;;;;;;;;;;2074711;28;20014;-82
2023/06/23 02:43:14;;;;;;;4.35;4.00;;;;;;;;;;2071088;28;20109;-82
2023/06/23 02:44:38;;;;;;;4.65;4.32;;;;;;;;;;2068098;28;20542;-82
2023/06/23 02:46:01;;;;;;;4.63;4.20;;;;;;;;;;2061861;28;20026;-84
2023/06/23 02:47:21;;;;;;;4.38;3.95;;;;;;;;;;2056097;28;20046;-82
2023/06/23 02:48:44;;;;;;;4.63;4.10;;;;;;;;;;2060827;28;20503;-82
2023/06/23 02:50:11;;;;;;;4.43;4.03;;;;;;;;;;2072300;28;20070;-82
2023/06/23 02:51:34;;;;;;;6.28;4.30;;;;;;;;;;2064851;28;20038;-82
2023/06/23 02:52:56;;;;;;;4.80;4.22;;;;;;;;;;2068304;28;20030;-83
2023/06/23 02:54:17;;;;;;;6.82;4.10;;;;;;;;;;2075180;28;20154;-81
2023/06/23 02:55:44;;;;;;;4.78;4.05;;;;;;;;;;2067319;28;20070;-82
2023/06/23 02:57:03;;;;;;;4.82;4.25;;;;;;;;;;2072796;28;20077;-82
2023/06/23 02:58:26;;;;;;;5.95;4.13;;;;;;;;;;2071988;28;20037;-82
2023/06/23 02:59:46;;;;;;;4.55;4.15;;;;;;;;;;2066308;28;20029;-82
2023/06/23 03:01:08;;;;;;;4.45;4.15;;;;;;;;;;2061775;28;20462;-83
2023/06/23 03:02:29;;;;;;;6.03;4.75;;;;;;;;;;2070558;28;20034;-82
2023/06/23 03:03:49;;;;;;;6.18;4.60;;;;;;;;;;2064633;28;20026;-83
2023/06/23 03:05:09;;;;;;;4.82;4.40;;;;;;;;;;2069833;28;20104;-82
2023/06/23 03:06:34;;;;;;;6.15;4.65;;;;;;;;;;2062991;28;20416;-82
2023/06/23 03:07:53;;;;;;;6.45;4.70;;;;;;;;;;2064531;28;20026;-83
2023/06/23 03:09:12;;;;;;;5.43;3.97;;;;;;;;;;2064324;28;20499;-84
2023/06/23 03:10:31;;;;;;;4.90;4.50;;;;;;;;;;2072669;28;20065;-82
2023/06/23 03:11:50;;;;;;;5.68;4.35;;;;;;;;;;2063101;28;20023;-82
2023/06/23 03:13:10;;;;;;;5.40;4.90;;;;;;;;;;2062150;28;20113;-82
2023/06/23 03:14:32;;;;;;;4.85;4.45;;;;;;;;;;2061988;28;20026;-83
2023/06/23 03:15:54;;;;;;;6.22;4.53;;;;;;;;;;2063830;28;20065;-83
2023/06/23 03:17:15;;;;;;;4.88;4.40;;;;;;;;;;2063443;28;20078;-81
2023/06/23 03:18:34;;;;;;;6.70;4.85;;;;;;;;;;2061428;28;20031;-82
2023/06/23 03:20:15;;;;;;;6.70;5.18;;;;;;;;;;2057262;28;20043;-83
2023/06/23 03:21:36;;;;;;;6.25;4.95;;;;;;;;;;2048044;28;20027;-82
2023/06/23 03:23:08;;;;;;;5.07;4.68;;;;;;;;;;2060757;28;20030;-83
2023/06/23 03:24:30;;;;;;;6.45;5.10;;;;;;;;;;2072335;28;20129;-81
2023/06/23 03:25:50;;;;;;;5.40;4.90;;;;;;;;;;2074863;28;20018;-82
2023/06/23 03:27:10;;;;;;;6.25;4.60;;;;;;;;;;2066207;28;20038;-82
2023/06/23 03:28:31;;;;;;;5.32;4.68;;;;;;;;;;2071500;28;20029;-81
2023/06/23 03:29:54;;;;;;;7.10;4.95;;;;;;;;;;2063097;28;20023;-83
2023/06/23 03:31:15;;;;;;;5.18;4.78;;;;;;;;;;2064780;28;20034;-83
2023/06/23 03:32:38;;;;;;;4.90;4.20;;;;;;;;;;2067247;28;20030;-82
2023/06/23 03:33:58;;;;;;;9.48;5.40;;;;;;;;;;2067718;28;20419;-83
2023/06/23 03:35:22;;;;;;;7.93;4.80;;;;;;;;;;2063099;28;20031;-82
2023/06/23 03:36:42;;;;;;;5.40;4.90;;;;;;;;;;2072889;28;20021;-84
2023/06/23 03:38:03;;;;;;;4.95;4.47;;;;;;;;;;2065195;28;20419;-83
2023/06/23 03:39:24;;;;;;;8.70;4.75;;;;;;;;;;2060466;28;20602;-84
2023/06/23 03:40:48;;;;;;;4.75;4.30;;;;;;;;;;2071185;28;20038;-84
2023/06/23 03:42:09;;;;;;;6.03;4.60;;;;;;;;;;2066981;28;20023;-83
2023/06/23 03:43:37;;;;;;;5.07;4.57;;;;;;;;;;2073245;28;20025;-84
2023/06/23 03:44:57;;;;;;;8.27;5.38;;;;;;;;;;2065962;28;20030;-83
2023/06/23 03:46:23;;;;;;;5.47;4.93;;;;;;;;;;2075222;28;20022;-85
2023/06/23 03:47:45;;;;;;;5.35;4.95;;;;;;;;;;2075959;28;20072;-82
2023/06/23 03:49:06;;;;;;;6.40;5.13;;;;;;;;;;2068850;28;20030;-82
2023/06/23 03:50:27;;;;;;;5.80;5.00;;;;;;;;;;2068345;28;20061;-83
2023/06/23 03:51:47;;;;;;;4.95;4.45;;;;;;;;;;2075508;28;20025;-81
2023/06/23 03:53:06;;;;;;;5.72;5.22;;;;;;;;;;2067745;28;20038;-81
2023/06/23 03:54:26;;;;;;;5.63;5.07;;;;;;;;;;2072330;28;20067;-82
2023/06/23 03:55:46;;;;;;;5.30;4.85;;;;;;;;;;2066564;28;20475;-82
2023/06/23 03:57:07;;;;;;;6.07;5.32;;;;;;;;;;2063926;28;20117;-83
2023/06/23 03:58:32;;;;;;;5.68;5.18;;;;;;;;;;2071078;28;20394;-82
2023/06/23 03:59:53;;;;;;;5.97;5.32;;;;;;;;;;2068135;28;20034;-83
2023/06/23 04:01:14;;;;;;;4.90;4.50;;;;;;;;;;2063413;28;20027;-83
2023/06/23 04:02:33;;;;;;;7.05;5.75;;;;;;;;;;2062788;28;20022;-83
2023/06/23 04:03:54;;;;;;;4.93;4.43;;;;;;;;;;2069324;28;20026;-83
2023/06/23 04:05:15;;;;;;;7.28;5.10;;;;;;;;;;2065872;28;20038;-82
2023/06/23 04:06:34;;;;;;;5.25;4.75;;;;;;;;;;2064569;28;20030;-83
2023/06/23 04:07:59;;;;;;;6.35;5.18;;;;;;;;;;2071024;28;20060;-82
2023/06/23 04:09:19;;;;;;;5.15;4.63;;;;;;;;;;2077208;28;20026;-83
2023/06/23 04:10:38;;;;;;;7.45;4.68;;;;;;;;;;2074473;28;20037;-81
2023/06/23 04:11:58;;;;;;;4.85;4.55;;;;;;;;;;2066649;28;20030;-83
2023/06/23 04:13:18;;;;;;;5.15;4.68;;;;;;;;;;2064234;28;20035;-82
2023/06/23 04:14:39;;;;;;;5.65;5.15;;;;;;;;;;2065653;28;20101;-82
2023/06/23 04:15:59;;;;;;;6.28;5.00;;;;;;;;;;2066663;28;20061;-82
2023/06/23 04:17:20;;;;;;;8.48;4.80;;;;;;;;;;2063453;28;20030;-82
2023/06/23 04:18:41;;;;;;;8.25;5.20;;;;;;;;;;2072825;28;20034;-81
2023/06/23 04:20:03;;;;;;;6.30;4.55;;;;;;;;;;2067019;28;20030;-82
2023/06/23 04:21:22;;;;;;;6.93;5.32;;;;;;;;;;2065943;28;20026;-82
2023/06/23 04:22:44;;;;;;;5.10;4.65;;;;;;;;;;2073617;28;20022;-81
2023/06/23 04:24:03;;;;;;;7.55;5.35;;;;;;;;;;2066569;28;20031;-82
2023/06/23 04:25:23;;;;;;;8.95;4.63;;;;;;;;;;2071793;28;20027;-81
2023/06/23 04:26:42;;;;;;;4.68;4.38;;;;;;;;;;2074153;28;20030;-82
2023/06/23 04:28:04;;;;;;;6.07;4.80;;;;;;;;;;2067351;28;20030;-82
2023/06/23 04:29:24;;;;;;;5.60;5.10;;;;;;;;;;2063523;28;20027;-82
2023/06/23 04:30:43;;;;;;;7.88;5.20;;;;;;;;;;2057981;28;20030;-82
2023/06/23 04:32:02;;;;;;;6.97;5.10;;;;;;;;;;2057979;28;20428;-83
2023/06/23 04:33:21;;;;;;;6.75;4.53;;;;;;;;;;2064844;28;20030;-83
2023/06/23 04:34:42;;;;;;;7.60;5.40;;;;;;;;;;2064401;28;20034;-82
2023/06/23 04:36:18;;;;;;;5.55;5.05;;;;;;;;;;2073047;28;20117;-82
2023/06/23 04:37:42;;;;;;;6.13;4.85;;;;;;;;;;2062728;28;20027;-83
2023/06/23 04:39:12;;;;;;;8.27;5.00;;;;;;;;;;2070991;28;20037;-82
2023/06/23 04:40:42;;;;;;;7.68;5.10;;;;;;;;;;2060614;28;20058;-85
2023/06/23 04:42:03;;;;;;;6.60;5.07;;;;;;;;;;2063764;28;20066;-84
2023/06/23 04:43:29;;;;;;;7.63;5.07;;;;;;;;;;2074420;28;20027;-83
2023/06/23 04:44:52;;;;;;;5.38;4.68;;;;;;;;;;2064864;28;20022;-83
2023/06/23 04:46:18;;;;;;;6.03;5.28;;;;;;;;;;2065701;28;20035;-83
2023/06/23 04:47:43;;;;;;;6.45;4.78;;;;;;;;;;2070324;28;20496;-82
2023/06/23 04:49:07;;;;;;;8.18;5.25;;;;;;;;;;2072804;28;20115;-84
2023/06/23 04:50:30;;;;;;;6.25;5.07;;;;;;;;;;2075369;28;20080;-84
2023/06/23 04:51:52;;;;;;;6.85;5.15;;;;;;;;;;2066929;28;20062;-83
2023/06/23 04:53:24;;;;;;;6.25;5.15;;;;;;;;;;2071655;28;20050;-83
2023/06/23 04:54:45;;;;;;;5.45;4.97;;;;;;;;;;2066511;28;20645;-82
2023/06/23 04:56:05;;;;;;;5.93;5.18;;;;;;;;;;2072599;28;20026;-84
2023/06/23 04:57:27;;;;;;;4.93;4.50;;;;;;;;;;2073126;28;20487;-84
2023/06/23 04:58:48;;;;;;;5.32;4.80;;;;;;;;;;2066234;28;20034;-82
2023/06/23 05:00:07;;;;;;;7.75;5.30;;;;;;;;;;2062781;28;20051;-81
2023/06/23 05:01:27;;;;;;;6.45;4.88;;;;;;;;;;2066916;28;20018;-83
2023/06/23 05:02:48;;;;;;;6.15;5.55;;;;;;;;;;2072461;28;20029;-81
2023/06/23 05:04:08;;;;;;;7.95;5.00;;;;;;;;;;2067964;28;20069;-81
2023/06/23 05:05:28;;;;;;;4.88;4.47;;;;;;;;;;2063042;28;20502;-80
2023/06/23 05:06:48;;;;;;;7.15;4.85;;;;;;;;;;2071950;28;20430;-81
2023/06/23 05:08:08;;;;;;;8.57;5.65;;;;;;;;;;2075111;28;20018;-80
2023/06/23 05:09:28;;;;;;;8.63;5.00;;;;;;;;;;2066406;28;20026;-81
2023/06/23 05:10:47;;;;;;;5.50;5.03;;;;;;;;;;2064081;28;20058;-81
2023/06/23 05:12:06;;;;;;;4.90;4.40;;;;;;;;;;2062438;28;20038;-80
2023/06/23 05:13:27;;;;;;;6.13;5.30;;;;;;;;;;2070361;28;20993;-80
2023/06/23 05:14:47;;;;;;;5.55;5.07;;;;;;;;;;2066029;28;20038;-81
2023/06/23 05:16:10;;;;;;;6.85;6.15;;;;;;;;;;2070681;28;20033;-80
2023/06/23 05:17:29;;;;;;;7.80;5.20;;;;;;;;;;2073175;28;20034;-81
2023/06/23 05:18:52;;;;;;;8.48;5.30;;;;;;;;;;2065141;28;20062;-80
2023/06/23 05:20:12;;;;;;;7.95;5.65;;;;;;;;;;2063001;28;20030;-80
2023/06/23 05:21:31;;;;;;;5.22;4.78;;;;;;;;;;2065049;28;20054;-79
2023/06/23 05:22:51;;;;;;;8.27;5.22;;;;;;;;;;2070357;28;20022;-81
2023/06/23 05:24:11;;;;;;;7.07;4.88;;;;;;;;;;2065033;28;20169;-81
2023/06/23 05:25:32;;;;;;;6.10;5.30;;;;;;;;;;2067968;28;20034;-81
2023/06/23 05:26:56;;;;;;;8.13;5.32;;;;;;;;;;2071189;28;20026;-83
2023/06/23 05:28:17;;;;;;;5.47;4.97;;;;;;;;;;2069521;28;20030;-83
2023/06/23 05:29:38;;;;;;;6.03;5.40;;;;;;;;;;2068520;28;20039;-83
2023/06/23 05:30:59;;;;;;;7.05;4.30;;;;;;;;;;2064127;28;20038;-82
2023/06/23 05:32:20;;;;;;;7.50;5.10;;;;;;;;;;2064614;28;20038;-83
2023/06/23 05:33:40;;;;;;;7.20;5.20;;;;;;;;;;2070457;28;20042;-82
2023/06/23 05:35:01;;;;;;;5.28;4.78;;;;;;;;;;2060175;28;20113;-81
2023/06/23 05:36:22;;;;;;;5.82;5.22;;;;;;;;;;2058667;28;20026;-81
2023/06/23 05:37:42;;;;;;;7.80;5.30;;;;;;;;;;2061952;28;20375;-84
2023/06/23 05:39:01;;;;;;;7.25;4.95;;;;;;;;;;2063686;28;20034;-79
2023/06/23 05:40:21;;;;;;;4.90;4.50;;;;;;;;;;2071918;28;20022;-79
2023/06/23 05:41:40;;;;;;;6.35;5.07;;;;;;;;;;2056665;28;20113;-80
2023/06/23 05:43:02;;;;;;;6.72;5.28;;;;;;;;;;2067247;28;20034;-80
2023/06/23 05:44:21;;;;;;;8.38;5.35;;;;;;;;;;2057477;28;20027;-81
2023/06/23 05:45:40;;;;;;;7.93;5.18;;;;;;;;;;2060351;28;20511;-81
2023/06/23 05:47:00;;;;;;;5.40;5.00;;;;;;;;;;2068966;28;20030;-80
2023/06/23 05:48:41;;;;;;;7.35;5.13;;;;;;;;;;2064485;28;20022;-79
2023/06/23 05:50:07;;;;;;;8.23;5.55;;;;;;;;;;2066532;28;20025;-79
2023/06/23 05:51:29;;;;;;;7.50;5.15;;;;;;;;;;2063005;28;20109;-82
2023/06/23 05:52:53;;;;;;;5.75;5.20;;;;;;;;;;2060937;28;20105;-80
2023/06/23 05:54:14;;;;;;;5.47;4.55;;;;;;;;;;2067282;28;20038;-78
2023/06/23 05:55:37;;;;;;;5.57;5.03;;;;;;;;;;2065599;28;20062;-79
2023/06/23 05:56:58;;;;;;;5.50;5.00;;;;;;;;;;2061377;28;20596;-79
2023/06/23 05:58:18;;;;;;;5.68;4.80;;;;;;;;;;2061723;28;20034;-78
2023/06/23 05:59:39;;;;;;;5.78;4.60;;;;;;;;;;2070275;28;20042;-80
2023/06/23 06:01:00;;;;;;;6.65;4.93;;;;;;;;;;2060112;28;20423;-80
2023/06/23 06:02:21;;;;;;;8.93;5.43;;;;;;;;;;2062231;28;20030;-80
2023/06/23 06:03:42;;;;;;;7.93;4.97;;;;;;;;;;2063838;28;20046;-79
2023/06/23 06:05:05;;;;;;;5.57;4.72;;;;;;;;;;2060774;28;20022;-80
2023/06/23 06:06:25;;;;;;;8.15;4.90;;;;;;;;;;2061484;28;20403;-79
2023/06/23 06:07:45;;;;;;;5.85;5.03;;;;;;;;;;2063046;28;20027;-79
2023/06/23 06:09:06;;;;;;;9.30;5.35;;;;;;;;;;2069044;28;20425;-79
2023/06/23 06:10:26;;;;;;;5.93;5.25;;;;;;;;;;2074381;28;20026;-81
2023/06/23 06:11:46;;;;;;;7.75;5.18;;;;;;;;;;2072434;28;20109;-79
2023/06/23 06:13:06;;;;;;;6.47;4.78;;;;;;;;;;2063507;28;20539;-79
2023/06/23 06:14:26;;;;;;;5.72;4.82;;;;;;;;;;2057891;28;20037;-82
2023/06/23 06:15:46;;;;;;;8.45;5.90;;;;;;;;;;2061393;28;20030;-80
2023/06/23 06:17:07;;;;;;;7.65;5.00;;;;;;;;;;2070121;28;20112;-79
2023/06/23 06:18:27;;;;;;;5.47;4.82;;;;;;;;;;2063235;28;20022;-80
2023/06/23 06:19:47;;;;;;;7.93;5.38;;;;;;;;;;2062220;28;20042;-80
2023/06/23 06:21:07;;;;;;;6.03;5.43;;;;;;;;;;2061402;28;20034;-79
2023/06/23 06:22:27;;;;;;;9.05;5.30;;;;;;;;;;2061064;28;20146;-79
2023/06/23 06:23:48;;;;;;;8.43;5.43;;;;;;;;;;2063792;28;20022;-80
2023/06/23 06:25:08;;;;;;;5.80;5.30;;;;;;;;;;2070432;28;20042;-80
2023/06/23 06:26:28;;;;;;;8.20;5.30;;;;;;;;;;2074934;28;20498;-79
2023/06/23 06:27:47;;;;;;;6.55;5.18;;;;;;;;;;2065875;28;20487;-79
2023/06/23 06:29:07;;;;;;;8.82;5.30;;;;;;;;;;2065240;28;20029;-79
2023/06/23 06:30:27;;;;;;;8.50;5.45;;;;;;;;;;2068928;28;20038;-78
2023/06/23 06:31:47;;;;;;;11.77;5.95;;;;;;;;;;2063754;28;20539;-80
2023/06/23 06:33:07;;;;;;;4.80;4.38;;;;;;;;;;2070909;28;20037;-80
2023/06/23 06:34:26;;;;;;;9.02;4.93;;;;;;;;;;2066281;28;20458;-80
2023/06/23 06:35:47;;;;;;;8.63;5.43;;;;;;;;;;2072001;28;20034;-81
2023/06/23 06:37:10;;;;;;;9.02;5.55;;;;;;;;;;2063191;28;20034;-80
2023/06/23 06:38:36;;;;;;;7.63;4.93;;;;;;;;;;2071566;28;20069;-78
2023/06/23 06:39:56;;;;;;;9.95;5.53;;;;;;;;;;2073655;28;20514;-80
2023/06/23 06:41:16;;;;;;;7.22;5.05;;;;;;;;;;2065745;28;20058;-80
2023/06/23 06:42:36;;;;;;;6.85;5.80;;;;;;;;;;2062058;28;20070;-80
2023/06/23 06:44:01;;;;;;;5.85;5.28;;;;;;;;;;2070620;28;20038;-84
2023/06/23 06:45:20;;;;;;;11.57;6.45;;;;;;;;;;2065764;28;20026;-82
2023/06/23 06:46:40;;;;;;;10.23;5.97;;;;;;;;;;2066905;28;20049;-82
2023/06/23 06:48:00;;;;;;;8.02;5.22;;;;;;;;;;2069003;28;20026;-81
2023/06/23 06:49:27;;;;;;;6.95;5.05;;;;;;;;;;2075329;28;20037;-82
2023/06/23 06:50:47;;;;;;;6.22;5.35;;;;;;;;;;2067585;28;20039;-80
2023/06/23 06:52:07;;;;;;;13.77;7.35;;;;;;;;;;2064167;28;20045;-85
2023/06/23 06:53:27;;;;;;;11.25;6.07;;;;;;;;;;2063038;28;20124;-82
2023/06/23 06:54:46;;;;;;;12.40;5.68;;;;;;;;;;2059794;28;20097;-77
2023/06/23 06:56:06;;;;;;;7.38;5.43;;;;;;;;;;2063704;28;20034;-79
2023/06/23 06:57:25;;;;;;;6.20;5.03;;;;;;;;;;2062095;28;20042;-77
2023/06/23 06:58:44;;;;;;;5.57;4.55;;;;;;;;;;2060384;28;20034;-80
2023/06/23 07:00:04;;;;;;;7.38;4.28;;;;;;;;;;2059330;28;20030;-78
2023/06/23 07:01:23;;;;;;;7.63;4.95;;;;;;;;;;2061928;28;20117;-83
2023/06/23 07:02:43;;;;;;;5.75;4.80;;;;;;;;;;2059478;28;20447;-79
2023/06/23 07:04:04;;;;;;;6.18;4.47;;;;;;;;;;2066930;28;20446;-83
2023/06/23 07:05:23;;;;;;;6.93;4.72;;;;;;;;;;2064915;28;20022;-80
2023/06/23 07:06:53;;;;;;;5.80;4.57;;;;;;;;;;2060128;28;20022;-79
2023/06/23 07:08:12;;;;;;;6.30;4.78;;;;;;;;;;2056898;28;20042;-82
2023/06/23 07:09:31;;;;;;;6.00;4.32;;;;;;;;;;2065422;28;20034;-82
2023/06/23 07:10:50;;;;;;;5.40;4.90;;;;;;;;;;2062558;28;20030;-84
2023/06/23 07:12:09;;;;;;;5.38;4.88;;;;;;;;;;2063932;28;20117;-82
2023/06/23 07:13:30;;;;;;;5.60;4.32;;;;;;;;;;2061889;28;20121;-84
2023/06/23 07:14:49;;;;;;;7.90;4.55;;;;;;;;;;2065974;28;20049;-80
2023/06/23 07:16:08;;;;;;;5.63;5.07;;;;;;;;;;2065881;28;20507;-81
2023/06/23 07:17:27;;;;;;;6.40;4.80;;;;;;;;;;2064991;28;20483;-81
2023/06/23 07:18:46;;;;;;;6.43;5.00;;;;;;;;;;2064795;28;20055;-81
2023/06/23 07:20:05;;;;;;;6.00;4.65;;;;;;;;;;2063537;28;20034;-80
2023/06/23 07:21:24;;;;;;;8.65;4.80;;;;;;;;;;2066704;28;20034;-81
2023/06/23 07:22:44;;;;;;;7.18;4.90;;;;;;;;;;2061877;28;20034;-80
2023/06/23 07:24:03;;;;;;;6.65;4.35;;;;;;;;;;2063968;28;20035;-80
2023/06/23 07:25:22;;;;;;;5.32;4.82;;;;;;;;;;2064540;28;20038;-78
2023/06/23 07:26:41;;;;;;;4.75;4.32;;;;;;;;;;2062153;28;20026;-78
2023/06/23 07:28:00;;;;;;;4.78;4.35;;;;;;;;;;2062286;28;20035;-78
2023/06/23 07:29:19;;;;;;;5.75;5.10;;;;;;;;;;2066557;28;20027;-77
2023/06/23 07:30:39;;;;;;;4.97;3.83;;;;;;;;;;2065937;28;20057;-81
2023/06/23 07:32:01;;;;;;;5.22;4.63;;;;;;;;;;2066376;28;20070;-80
2023/06/23 07:33:20;;;;;;;7.57;4.70;;;;;;;;;;2067150;28;20196;-77
2023/06/23 07:34:39;;;;;;;4.90;4.43;;;;;;;;;;2067119;28;20034;-80
2023/06/23 07:35:58;;;;;;;4.78;4.22;;;;;;;;;;2067752;28;20030;-79
2023/06/23 07:37:17;;;;;;;7.93;4.65;;;;;;;;;;2065037;28;20097;-79
2023/06/23 07:38:36;;;;;;;5.10;4.07;;;;;;;;;;2067500;28;20029;-80
2023/06/23 07:39:56;;;;;;;5.18;4.55;;;;;;;;;;2069134;28;20034;-79
2023/06/23 07:41:15;;;;;;;6.85;4.70;;;;;;;;;;2067660;28;20023;-79
2023/06/23 07:42:34;;;;;;;4.80;4.22;;;;;;;;;;2065696;28;20030;-76
2023/06/23 07:43:54;;;;;;;5.55;4.70;;;;;;;;;;2070797;28;20014;-81
2023/06/23 07:45:13;;;;;;;7.20;4.25;;;;;;;;;;2067890;28;20026;-79
2023/06/23 07:46:34;;;;;;;5.30;4.30;;;;;;;;;;2067733;28;20752;-78
2023/06/23 07:47:53;;;;;;;7.18;4.72;;;;;;;;;;2066776;28;20026;-79
2023/06/23 07:49:12;;;;;;;4.45;3.97;;;;;;;;;;2066465;28;20062;-79
2023/06/23 07:50:31;;;;;;;4.25;3.92;;;;;;;;;;2063035;28;20077;-78
2023/06/23 07:52:04;;;;;;;4.97;4.18;;;;;;;;;;2067834;28;20022;-80
2023/06/23 07:53:23;;;;;;;;;;;;;;;;;;2067808;28;20050;-79
2023/06/23 07:54:42;;;;;;;27.38;16.52;;;;;;;;;;2064031;28;19914;-78
2023/06/23 07:56:01;;;;;;;6.70;5.95;;;;;;;;;;2064190;28;20466;-80
2023/06/23 07:57:25;;;;;;;8.80;6.72;;;;;;;;;;2068196;28;20450;-76
2023/06/23 07:58:44;;;;;;;6.63;5.93;;;;;;;;;;2066256;28;20026;-78
2023/06/23 08:00:03;;;;;;;9.80;5.75;;;;;;;;;;2066302;28;20531;-76
2023/06/23 08:01:22;;;;;;;5.53;3.60;;;;;;;;;;2063488;28;20034;-76
2023/06/23 08:02:41;;;;;;;8.10;4.88;;;;;;;;;;2065656;28;20081;-80
2023/06/23 08:04:02;;;;;;;4.95;3.97;;;;;;;;;;2066956;28;20054;-75
2023/06/23 08:05:23;;;;;;;6.20;3.90;;;;;;;;;;2065364;28;20039;-76
2023/06/23 08:06:43;;;;;;;6.90;4.30;;;;;;;;;;2065462;28;20034;-75
2023/06/23 08:08:02;;;;;;;5.15;4.13;;;;;;;;;;2063269;28;20038;-76